Alcorn State University, Mississippi
Current Conditions -  °F | °C
As of 12:15 PM on Friday 31 Oct 2014 (Local Time) from KHEZ Reporting Station
Clear Clear  
Wind Chill: 19°   Ceiling: Unl
Heat Index: 19°   Visibility: 10mi
Dew Point:   Wind: 12mph
Humidity: 49%   Direction: 350°N
Pressure: 30.11"   Gusts: 23mph
Location:  31.8192°N, 91.1912°W
Report Text: KHEZ 311715Z AUTO 35010G20KT 310V010 10SM CLR 19/08 A3011 RMK AO1
Loading
Personal Weather Stations






























Interactive Weather Map
Tropical Storm Tracking
New forecast layout! Learn more

10-Day Weather Forecast

Advertisements
Track Severe Weather on mobile